createdAt,value
2018-05-03T00:01:48.089Z,5.40
2018-05-03T00:04:15.535Z,5.80
2018-05-03T00:06:42.963Z,6.03
2018-05-03T00:09:10.524Z,6.27
2018-05-03T00:11:37.989Z,5.90
2018-05-03T00:14:05.423Z,5.80
2018-05-03T00:16:32.883Z,5.80
2018-05-03T00:19:00.312Z,6.13
2018-05-03T00:21:27.774Z,6.27
2018-05-03T00:23:55.224Z,6.27
2018-05-03T00:26:22.705Z,5.87
2018-05-03T00:28:50.173Z,6.33
2018-05-03T00:31:17.671Z,6.23
2018-05-03T00:33:45.144Z,6.43
2018-05-03T00:36:12.581Z,6.30
2018-05-03T00:38:40.067Z,5.70
2018-05-03T00:41:07.536Z,5.73
2018-05-03T00:43:35.067Z,5.90
2018-05-03T00:46:02.557Z,6.47
2018-05-03T00:48:30.104Z,5.57
2018-05-03T00:50:57.549Z,5.90
2018-05-03T00:53:25.177Z,5.50
2018-05-03T00:55:52.679Z,5.80
2018-05-03T00:58:20.092Z,5.90
2018-05-03T01:00:47.545Z,6.20
2018-05-03T01:03:14.999Z,5.80
2018-05-03T01:05:42.465Z,6.93
2018-05-03T01:08:09.885Z,6.00
2018-05-03T01:10:37.338Z,5.90
2018-05-03T01:13:04.772Z,6.23
2018-05-03T01:15:32.205Z,7.30
2018-05-03T01:17:59.650Z,7.07
2018-05-03T01:20:27.109Z,6.40
2018-05-03T01:22:54.588Z,7.67
2018-05-03T01:25:22.974Z,6.93
2018-05-03T01:27:50.572Z,6.20
2018-05-03T01:30:18.136Z,6.83
2018-05-03T01:32:45.653Z,6.33
2018-05-03T01:35:25.027Z,7.10
2018-05-03T01:37:52.471Z,6.60
2018-05-03T01:40:19.928Z,7.40
2018-05-03T01:42:47.349Z,6.40
2018-05-03T01:45:14.763Z,6.83
2018-05-03T01:47:42.260Z,6.70
2018-05-03T01:50:09.687Z,6.90
2018-05-03T01:52:37.210Z,7.13
2018-05-03T01:55:04.661Z,7.20
2018-05-03T01:57:32.327Z,6.90
2018-05-03T01:59:59.763Z,8.10
2018-05-03T02:02:27.232Z,7.20
2018-05-03T02:04:54.657Z,7.00
2018-05-03T02:07:22.121Z,7.00
2018-05-03T02:09:49.572Z,7.47
2018-05-03T02:12:17.013Z,7.40
2018-05-03T02:14:44.486Z,7.13
2018-05-03T02:17:12.014Z,6.50
2018-05-03T02:19:39.641Z,6.73
2018-05-03T02:22:07.106Z,7.17
2018-05-03T02:24:34.559Z,7.00
2018-05-03T02:27:02.009Z,6.90
2018-05-03T02:29:29.461Z,7.03
2018-05-03T02:31:56.889Z,7.60
2018-05-03T02:34:24.350Z,8.03
2018-05-03T02:36:51.774Z,6.93
2018-05-03T02:39:19.240Z,7.73
2018-05-03T02:41:46.663Z,7.23
2018-05-03T02:44:14.109Z,7.17
2018-05-03T02:46:41.551Z,8.20
2018-05-03T02:49:09.004Z,7.47
2018-05-03T02:51:36.477Z,7.20
2018-05-03T02:54:04.037Z,7.90
2018-05-03T02:56:31.575Z,8.10
2018-05-03T02:59:10.849Z,7.90
2018-05-03T03:01:54.861Z,7.30
2018-05-03T03:04:39.575Z,7.97
2018-05-03T03:07:20.296Z,7.40
2018-05-03T03:13:35.592Z,7.63
2018-05-03T03:19:30.235Z,7.50
2018-05-03T03:22:15.155Z,7.37
2018-05-03T03:24:54.321Z,7.37
2018-05-03T03:27:43.010Z,8.10
2018-05-03T03:33:34.030Z,7.40
2018-05-03T03:36:13.231Z,7.63
2018-05-03T03:38:52.524Z,7.00
2018-05-03T03:41:31.614Z,7.40
2018-05-03T03:44:10.860Z,7.77
2018-05-03T03:46:38.300Z,8.40
2018-05-03T03:49:05.738Z,7.53
2018-05-03T03:51:33.201Z,8.03
2018-05-03T03:54:01.512Z,7.10
2018-05-03T03:56:28.941Z,7.90
2018-05-03T03:58:56.426Z,8.03
2018-05-03T04:01:23.873Z,8.33
2018-05-03T04:03:51.308Z,7.90
2018-05-03T04:06:18.757Z,7.67
2018-05-03T04:08:46.218Z,7.93
2018-05-03T04:11:13.675Z,8.37
2018-05-03T04:13:42.680Z,7.90
2018-05-03T04:16:10.152Z,8.37
2018-05-03T04:18:49.336Z,7.67
2018-05-03T04:21:28.481Z,8.63
2018-05-03T04:24:08.507Z,7.43
2018-05-03T04:26:35.995Z,7.47
2018-05-03T04:29:03.425Z,7.93
2018-05-03T04:31:30.887Z,8.13
2018-05-03T04:33:58.344Z,7.13
2018-05-03T04:36:25.957Z,8.90
2018-05-03T04:38:53.393Z,8.97
2018-05-03T04:41:20.915Z,11.20
2018-05-03T04:43:48.367Z,11.67
2018-05-03T04:46:15.807Z,11.00
2018-05-03T04:48:43.342Z,9.53
2018-05-03T04:51:10.784Z,8.27
2018-05-03T04:53:38.261Z,8.93
2018-05-03T04:56:05.698Z,9.83
2018-05-03T04:58:33.333Z,9.57
2018-05-03T05:01:00.770Z,9.20
2018-05-03T05:03:28.222Z,9.47
2018-05-03T05:05:56.193Z,7.93
2018-05-03T05:08:23.742Z,8.40
2018-05-03T05:10:51.341Z,9.20
2018-05-03T05:13:18.779Z,8.50
2018-05-03T05:15:46.251Z,8.73
2018-05-03T05:18:13.688Z,10.30
2018-05-03T05:20:41.126Z,9.47
2018-05-03T05:23:08.620Z,9.47
2018-05-03T05:25:36.094Z,9.13
2018-05-03T05:28:03.543Z,9.47
2018-05-03T05:30:31.040Z,9.63
2018-05-03T05:32:58.480Z,8.90
2018-05-03T05:35:26.029Z,9.23
2018-05-03T05:37:53.502Z,9.70
2018-05-03T05:40:20.982Z,8.90
2018-05-03T05:42:48.421Z,9.60
2018-05-03T05:45:15.860Z,9.10
2018-05-03T05:47:43.339Z,9.33
2018-05-03T05:50:10.773Z,9.43
2018-05-03T05:52:38.398Z,9.57
2018-05-03T05:55:05.827Z,9.70
2018-05-03T05:57:33.324Z,9.70
2018-05-03T06:00:00.767Z,9.00
2018-05-03T06:02:28.215Z,9.37
2018-05-03T06:04:55.659Z,9.63
2018-05-03T06:07:23.115Z,9.70
2018-05-03T06:09:50.583Z,8.60
2018-05-03T06:12:18.082Z,9.93
2018-05-03T06:14:45.706Z,8.93
2018-05-03T06:17:13.181Z,8.87
2018-05-03T06:19:40.660Z,8.53
2018-05-03T06:22:08.100Z,9.03
2018-05-03T06:24:35.674Z,9.90
2018-05-03T06:27:03.072Z,8.77
2018-05-03T06:29:30.510Z,9.90
2018-05-03T06:31:58.020Z,9.00
2018-05-03T06:34:25.409Z,9.77
2018-05-03T06:36:52.863Z,9.70
2018-05-03T06:39:20.310Z,8.90
2018-05-03T06:41:48.127Z,9.03
2018-05-03T06:44:15.611Z,9.37
2018-05-03T06:46:43.045Z,9.47
2018-05-03T06:49:10.501Z,9.10
2018-05-03T06:51:37.954Z,10.23
2018-05-03T06:54:05.428Z,10.00
2018-05-03T06:56:32.942Z,9.50
2018-05-03T06:59:00.599Z,8.50
2018-05-03T07:01:28.024Z,8.57
2018-05-03T07:03:55.519Z,8.47
2018-05-03T07:06:23.079Z,8.50
2018-05-03T07:08:51.371Z,8.30
2018-05-03T07:11:18.800Z,8.40
2018-05-03T07:13:46.270Z,8.80
2018-05-03T07:16:13.794Z,9.67
2018-05-03T07:18:41.189Z,8.03
2018-05-03T07:21:08.667Z,8.77
2018-05-03T07:23:36.181Z,8.60
2018-05-03T07:26:03.629Z,8.43
2018-05-03T07:28:31.190Z,8.40
2018-05-03T07:30:58.691Z,8.63
2018-05-03T07:33:26.173Z,8.10
2018-05-03T07:35:53.637Z,7.87
2018-05-03T07:38:21.075Z,8.43
2018-05-03T07:40:48.550Z,8.90
2018-05-03T07:43:15.957Z,8.33
2018-05-03T07:45:43.413Z,8.60
2018-05-03T07:48:10.843Z,8.67
2018-05-03T07:50:38.319Z,7.93
2018-05-03T07:53:05.751Z,8.00
2018-05-03T07:55:33.208Z,8.80
2018-05-03T07:58:00.652Z,8.10
2018-05-03T08:00:28.179Z,8.00
2018-05-03T08:02:55.629Z,8.47
2018-05-03T08:05:23.095Z,7.80
2018-05-03T08:07:50.542Z,7.87
2018-05-03T08:10:17.996Z,9.40
2018-05-03T08:12:45.476Z,8.13
2018-05-03T08:15:12.894Z,8.77
2018-05-03T08:17:40.347Z,8.10
2018-05-03T08:20:07.808Z,8.83
2018-05-03T08:22:35.237Z,8.37
2018-05-03T08:25:02.711Z,8.20
2018-05-03T08:27:30.153Z,8.07
2018-05-03T08:29:57.636Z,8.80
2018-05-03T08:32:25.067Z,8.60
2018-05-03T08:34:52.520Z,9.10
2018-05-03T08:37:19.959Z,9.00
2018-05-03T08:39:47.404Z,9.53
2018-05-03T08:42:14.894Z,9.20
2018-05-03T08:44:42.401Z,9.53
2018-05-03T08:47:09.817Z,9.27
2018-05-03T08:49:37.328Z,9.63
2018-05-03T08:52:04.799Z,9.90
2018-05-03T08:54:32.262Z,8.90
2018-05-03T08:56:59.878Z,11.17
2018-05-03T08:59:27.318Z,10.10
2018-05-03T09:01:54.853Z,9.70
2018-05-03T09:04:22.247Z,8.70
2018-05-03T09:06:49.689Z,9.50
2018-05-03T09:09:17.141Z,9.37
2018-05-03T09:11:44.617Z,9.67
2018-05-03T09:14:12.074Z,8.67
2018-05-03T09:16:39.576Z,9.17
2018-05-03T09:19:07.039Z,9.30
2018-05-03T09:21:34.528Z,9.93
2018-05-03T09:24:02.024Z,8.67
2018-05-03T09:26:29.472Z,9.83
2018-05-03T09:28:56.938Z,9.50
2018-05-03T09:31:24.389Z,9.63
2018-05-03T09:33:51.940Z,9.40
2018-05-03T09:36:19.372Z,9.93
2018-05-03T09:38:46.828Z,9.90
2018-05-03T09:41:14.247Z,9.97
2018-05-03T09:43:41.699Z,9.30
2018-05-03T09:46:09.126Z,9.10
2018-05-03T09:48:36.598Z,9.90
2018-05-03T09:51:04.090Z,9.03
2018-05-03T09:53:31.508Z,9.70
2018-05-03T09:55:58.952Z,10.47
2018-05-03T09:58:26.419Z,9.60
2018-05-03T10:00:53.888Z,9.80
2018-05-03T10:03:21.365Z,10.00
2018-05-03T10:05:48.811Z,9.00
2018-05-03T10:08:16.279Z,9.60
2018-05-03T10:10:43.747Z,9.20
2018-05-03T10:13:11.262Z,9.10
2018-05-03T10:15:38.704Z,9.10
2018-05-03T10:18:06.161Z,9.13
2018-05-03T10:20:33.662Z,10.27
2018-05-03T10:23:01.148Z,9.13
2018-05-03T10:25:28.582Z,10.10
2018-05-03T10:27:56.024Z,9.97
2018-05-03T10:30:23.467Z,10.40
2018-05-03T10:32:50.975Z,9.10
2018-05-03T10:35:18.503Z,9.70
2018-05-03T10:37:45.959Z,9.87
2018-05-03T10:40:13.426Z,10.67
2018-05-03T10:42:40.857Z,9.63
2018-05-03T10:45:08.459Z,9.60
2018-05-03T10:47:35.934Z,9.67
2018-05-03T10:50:03.386Z,9.50
2018-05-03T10:52:30.822Z,9.80
2018-05-03T10:54:58.282Z,10.00
2018-05-03T10:57:25.806Z,10.43
2018-05-03T10:59:53.193Z,10.50
2018-05-03T11:02:20.641Z,9.33
2018-05-03T11:04:48.100Z,10.10
2018-05-03T11:07:15.550Z,10.33
2018-05-03T11:09:43.008Z,10.60
2018-05-03T11:12:10.540Z,10.07
2018-05-03T11:14:37.981Z,10.17
2018-05-03T11:17:05.492Z,9.83
2018-05-03T11:19:33.079Z,10.20
2018-05-03T11:22:00.553Z,9.63
2018-05-03T11:24:27.991Z,10.03
2018-05-03T11:26:55.487Z,10.90
2018-05-03T11:29:22.975Z,9.90
2018-05-03T11:31:50.533Z,11.33
2018-05-03T11:34:17.994Z,9.47
2018-05-03T11:36:46.120Z,11.00
2018-05-03T11:39:13.542Z,10.40
2018-05-03T11:41:41.041Z,10.30
2018-05-03T11:44:08.531Z,11.00
2018-05-03T11:46:36.142Z,10.27
2018-05-03T11:49:03.594Z,11.47
2018-05-03T11:51:31.057Z,10.27
2018-05-03T11:53:58.515Z,9.87
2018-05-03T11:56:25.964Z,9.33
2018-05-03T11:58:54.127Z,10.20
2018-05-03T12:01:21.586Z,9.60
2018-05-03T12:03:49.099Z,10.73
2018-05-03T12:06:16.572Z,9.20
2018-05-03T12:08:44.015Z,9.60
2018-05-03T12:11:11.480Z,10.43
2018-05-03T12:13:39.121Z,10.80
2018-05-03T12:16:06.591Z,10.03
2018-05-03T12:18:34.117Z,11.00
2018-05-03T12:21:01.546Z,9.67
2018-05-03T12:23:29.028Z,9.97
2018-05-03T12:25:56.509Z,9.70
2018-05-03T12:28:23.997Z,10.07
2018-05-03T12:30:51.434Z,10.13
2018-05-03T12:33:18.895Z,10.00
2018-05-03T12:35:46.343Z,9.13
2018-05-03T12:38:13.769Z,9.13
2018-05-03T12:40:41.248Z,10.00
2018-05-03T12:43:08.685Z,9.50
2018-05-03T12:45:36.149Z,9.60
2018-05-03T12:48:03.665Z,10.40
2018-05-03T12:50:31.126Z,14.63
2018-05-03T12:52:58.584Z,9.70
2018-05-03T12:55:26.053Z,10.60
2018-05-03T12:57:53.507Z,10.00
2018-05-03T13:00:20.980Z,10.50
2018-05-03T13:02:48.459Z,11.30
2018-05-03T13:05:15.937Z,9.60
2018-05-03T13:07:43.413Z,10.00
2018-05-03T13:10:10.865Z,8.50
2018-05-03T13:12:38.352Z,9.90
2018-05-03T13:15:05.775Z,8.87
2018-05-03T13:17:33.254Z,9.90
2018-05-03T13:20:00.690Z,9.37
2018-05-03T13:22:28.138Z,9.07
2018-05-03T13:24:55.580Z,9.57
2018-05-03T13:27:23.043Z,9.07
2018-05-03T13:29:50.478Z,9.60
2018-05-03T13:32:18.089Z,9.60
2018-05-03T13:34:45.521Z,10.17
2018-05-03T13:37:12.974Z,10.10
2018-05-03T13:39:40.460Z,9.53
2018-05-03T13:42:07.918Z,10.10
2018-05-03T13:44:35.369Z,10.27
2018-05-03T13:47:03.452Z,10.13
2018-05-03T13:49:30.912Z,9.57
2018-05-03T13:51:58.462Z,8.97
2018-05-03T13:54:26.055Z,8.53
2018-05-03T13:56:53.576Z,9.17
2018-05-03T13:59:21.032Z,8.63
2018-05-03T14:01:48.499Z,8.73
2018-05-03T14:04:15.969Z,9.30
2018-05-03T14:06:43.403Z,8.17
2018-05-03T14:09:10.876Z,8.60
2018-05-03T14:11:38.328Z,8.70
2018-05-03T14:14:05.787Z,8.43
2018-05-03T14:16:33.221Z,9.33
2018-05-03T14:19:00.748Z,9.13
2018-05-03T14:21:28.436Z,8.30
2018-05-03T14:23:55.893Z,8.70
2018-05-03T14:26:23.385Z,9.20
2018-05-03T14:28:50.848Z,9.67
2018-05-03T14:31:18.294Z,9.13
2018-05-03T14:33:45.898Z,8.77
2018-05-03T14:36:13.349Z,8.40
2018-05-03T14:38:40.880Z,9.10
2018-05-03T14:41:08.354Z,9.47
2018-05-03T14:43:35.784Z,10.03
2018-05-03T14:46:03.270Z,9.27
2018-05-03T14:48:30.726Z,9.10
2018-05-03T14:50:58.191Z,10.57
2018-05-03T14:53:25.648Z,9.60
2018-05-03T14:55:53.217Z,8.30
2018-05-03T14:58:20.692Z,8.53
2018-05-03T15:00:48.104Z,7.83
2018-05-03T15:03:15.574Z,9.60
2018-05-03T15:05:43.011Z,9.60
2018-05-03T15:08:10.467Z,8.70
2018-05-03T15:10:37.941Z,8.50
2018-05-03T15:13:05.367Z,8.30
2018-05-03T15:15:32.800Z,8.80
2018-05-03T15:18:00.296Z,8.30
2018-05-03T15:20:27.722Z,7.80
2018-05-03T15:22:55.179Z,8.27
2018-05-03T15:25:22.644Z,8.43
2018-05-03T15:27:50.086Z,8.30
2018-05-03T15:30:17.560Z,7.47
2018-05-03T15:32:44.996Z,8.73
2018-05-03T15:35:12.475Z,7.83
2018-05-03T15:37:39.918Z,8.17
2018-05-03T15:40:07.373Z,7.87
2018-05-03T15:42:34.805Z,7.90
2018-05-03T15:45:02.312Z,7.53
2018-05-03T15:47:29.823Z,7.30
2018-05-03T15:49:57.362Z,7.50
2018-05-03T15:52:24.732Z,8.67
2018-05-03T15:54:52.196Z,8.17
2018-05-03T15:57:19.608Z,8.43
2018-05-03T15:59:47.088Z,7.93
2018-05-03T16:02:14.518Z,7.67
2018-05-03T16:04:42.101Z,7.10
2018-05-03T16:07:09.645Z,6.50
2018-05-03T16:09:37.068Z,7.47
2018-05-03T16:12:04.623Z,7.47
2018-05-03T16:14:32.081Z,6.40
2018-05-03T16:16:59.534Z,6.60
2018-05-03T16:19:26.984Z,7.00
2018-05-03T16:21:54.456Z,6.80
2018-05-03T16:24:21.918Z,6.50
2018-05-03T16:26:49.375Z,7.50
2018-05-03T16:29:16.842Z,6.20
2018-05-03T16:31:44.306Z,6.43
2018-05-03T16:34:11.807Z,7.10
2018-05-03T16:36:39.901Z,7.20
2018-05-03T16:39:07.370Z,6.63
2018-05-03T16:41:34.903Z,6.83
2018-05-03T16:44:02.352Z,6.30
2018-05-03T16:46:29.796Z,6.67
2018-05-03T16:48:57.258Z,6.60
2018-05-03T16:51:24.695Z,7.20
2018-05-03T16:53:56.004Z,6.47
2018-05-03T16:56:27.552Z,6.77
2018-05-03T16:58:55.011Z,6.17
2018-05-03T17:01:22.550Z,7.40
2018-05-03T17:03:50.062Z,6.43
2018-05-03T17:06:17.617Z,6.10
2018-05-03T17:08:45.984Z,6.60
2018-05-03T17:11:13.630Z,5.93
2018-05-03T17:13:41.213Z,6.83
2018-05-03T17:16:08.905Z,6.83
2018-05-03T17:18:36.560Z,6.43
2018-05-03T17:21:03.998Z,6.50
2018-05-03T17:23:31.468Z,6.33
2018-05-03T17:25:59.539Z,6.43
2018-05-03T17:28:26.980Z,6.70
2018-05-03T17:30:54.658Z,6.37
2018-05-03T17:33:22.106Z,6.23
2018-05-03T17:35:49.753Z,7.00
2018-05-03T17:38:17.831Z,6.67
2018-05-03T17:40:45.575Z,5.77
2018-05-03T17:43:13.060Z,7.20
2018-05-03T17:45:40.554Z,6.30
2018-05-03T17:48:08.007Z,6.00
2018-05-03T17:50:35.469Z,6.60
2018-05-03T17:53:03.375Z,6.77
2018-05-03T17:55:31.566Z,6.70
2018-05-03T17:57:59.037Z,6.53
2018-05-03T18:00:26.525Z,5.60
2018-05-03T18:02:54.031Z,6.57
2018-05-03T18:05:21.447Z,5.93
2018-05-03T18:07:48.897Z,5.50
2018-05-03T18:10:16.357Z,6.23
2018-05-03T18:15:17.866Z,6.10
2018-05-03T18:17:45.358Z,6.33
2018-05-03T18:20:12.779Z,7.00
2018-05-03T18:22:40.267Z,7.10
2018-05-03T18:25:07.724Z,7.00
2018-05-03T18:27:35.207Z,6.80
2018-05-03T18:30:02.652Z,6.80
2018-05-03T18:32:30.104Z,7.30
2018-05-03T18:34:57.577Z,7.07
2018-05-03T18:37:25.024Z,7.40
2018-05-03T18:39:52.527Z,7.30
2018-05-03T18:42:19.983Z,7.30
2018-05-03T18:44:47.476Z,6.97
2018-05-03T18:47:15.005Z,6.63
2018-05-03T18:49:42.637Z,7.23
2018-05-03T18:52:10.162Z,7.40
2018-05-03T18:54:37.751Z,6.70
2018-05-03T18:57:05.584Z,7.20
2018-05-03T18:59:33.097Z,6.40
2018-05-03T19:02:00.600Z,7.60
2018-05-03T19:04:28.043Z,7.40
2018-05-03T19:06:55.739Z,6.93
2018-05-03T19:09:23.542Z,6.97
2018-05-03T19:11:51.076Z,7.00
2018-05-03T19:14:18.466Z,6.90
2018-05-03T19:16:45.955Z,6.60
2018-05-03T19:19:13.392Z,6.33
2018-05-03T19:21:40.926Z,7.17
2018-05-03T19:24:08.372Z,6.93
2018-05-03T19:26:35.884Z,6.10
2018-05-03T19:29:04.033Z,7.50
2018-05-03T19:31:31.489Z,6.00
2018-05-03T19:33:58.960Z,7.03
2018-05-03T19:36:26.445Z,7.40
2018-05-03T19:38:53.973Z,6.60
2018-05-03T19:41:21.408Z,7.20
2018-05-03T19:43:48.860Z,7.60
2018-05-03T19:46:16.337Z,6.67
2018-05-03T19:48:43.821Z,7.03
2018-05-03T19:51:11.255Z,6.77
2018-05-03T19:53:38.754Z,5.90
2018-05-03T19:56:06.193Z,6.90
2018-05-03T19:58:33.680Z,5.80
2018-05-03T20:01:01.175Z,5.83
2018-05-03T20:03:28.631Z,6.60
2018-05-03T20:05:56.092Z,5.70
2018-05-03T20:08:23.588Z,6.20
2018-05-03T20:10:51.169Z,7.20
2018-05-03T20:13:18.830Z,5.97
2018-05-03T20:15:46.308Z,6.63
2018-05-03T20:18:13.753Z,6.63
2018-05-03T20:20:41.839Z,6.97
2018-05-03T20:23:09.307Z,7.60
2018-05-03T20:25:36.787Z,7.40
2018-05-03T20:28:04.245Z,7.57
2018-05-03T20:30:31.695Z,7.33
2018-05-03T20:32:59.180Z,6.80
2018-05-03T20:35:26.597Z,6.73
2018-05-03T20:37:54.042Z,6.77
2018-05-03T20:40:21.528Z,7.20
2018-05-03T20:42:48.995Z,7.07
2018-05-03T20:45:16.439Z,6.97
2018-05-03T20:47:43.915Z,6.53
2018-05-03T20:50:11.375Z,7.30
2018-05-03T20:52:38.793Z,6.67
2018-05-03T20:55:06.263Z,7.00
2018-05-03T20:57:33.856Z,7.27
2018-05-03T21:00:01.274Z,7.33
2018-05-03T21:02:28.725Z,6.93
2018-05-03T21:04:56.391Z,7.10
2018-05-03T21:07:23.845Z,7.87
2018-05-03T21:09:51.305Z,6.77
2018-05-03T21:12:19.611Z,6.90
2018-05-03T21:14:47.104Z,6.80
2018-05-03T21:17:14.535Z,6.80
2018-05-03T21:19:42.077Z,6.83
2018-05-03T21:22:09.528Z,7.07
2018-05-03T21:24:36.968Z,6.97
2018-05-03T21:27:04.431Z,7.57
2018-05-03T21:29:31.876Z,6.63
2018-05-03T21:31:59.325Z,6.80
2018-05-03T21:34:26.774Z,6.50
2018-05-03T21:36:54.260Z,6.63
2018-05-03T21:39:21.693Z,7.00
2018-05-03T21:41:49.247Z,6.93
2018-05-03T21:44:16.647Z,9.60
2018-05-03T21:46:44.101Z,7.53
2018-05-03T21:49:11.553Z,8.07
2018-05-03T21:51:39.035Z,7.10
2018-05-03T21:54:07.000Z,6.80
2018-05-03T21:56:34.569Z,6.10
2018-05-03T21:59:02.034Z,6.60
2018-05-03T22:01:29.475Z,6.97
2018-05-03T22:03:57.033Z,6.50
2018-05-03T22:06:24.382Z,7.23
2018-05-03T22:08:51.866Z,6.80
2018-05-03T22:11:19.313Z,6.50
2018-05-03T22:13:46.826Z,6.67
2018-05-03T22:16:14.269Z,7.03
2018-05-03T22:18:41.817Z,6.50
2018-05-03T22:21:09.253Z,7.50
2018-05-03T22:23:36.775Z,6.60
2018-05-03T22:26:04.291Z,6.53
2018-05-03T22:28:31.765Z,6.67
2018-05-03T22:30:59.272Z,7.10
2018-05-03T22:33:26.707Z,7.03
2018-05-03T22:35:54.173Z,7.07
2018-05-03T22:38:22.469Z,6.70
2018-05-03T22:40:50.118Z,7.90
2018-05-03T22:43:17.545Z,7.80
2018-05-03T22:45:45.044Z,7.47
2018-05-03T22:48:12.510Z,8.67
2018-05-03T22:50:40.607Z,7.83
2018-05-03T22:53:08.107Z,7.90
2018-05-03T22:55:35.631Z,7.50
2018-05-03T22:58:03.084Z,7.80
2018-05-03T23:00:30.612Z,7.97
2018-05-03T23:02:58.069Z,8.87
2018-05-03T23:05:25.579Z,8.00
2018-05-03T23:07:53.041Z,7.97
2018-05-03T23:10:20.778Z,9.10
2018-05-03T23:12:48.238Z,10.03
2018-05-03T23:15:15.678Z,9.73
2018-05-03T23:17:43.125Z,9.73
2018-05-03T23:20:10.590Z,9.87
2018-05-03T23:22:38.108Z,10.63
2018-05-03T23:25:05.545Z,10.10
2018-05-03T23:27:33.021Z,10.63
2018-05-03T23:30:00.559Z,10.10
2018-05-03T23:32:28.091Z,10.80
2018-05-03T23:34:55.565Z,10.60
2018-05-03T23:37:22.997Z,11.00
2018-05-03T23:39:50.524Z,10.80
2018-05-03T23:42:17.980Z,11.30
2018-05-03T23:44:45.469Z,11.10
2018-05-03T23:47:13.000Z,11.13
2018-05-03T23:49:40.453Z,11.60
2018-05-03T23:52:07.901Z,11.63
2018-05-03T23:54:35.375Z,11.37
2018-05-03T23:57:02.877Z,12.00
2018-05-03T23:59:30.357Z,13.00
